sensor_id;sensor_type;location;lat;lon;timestamp;pressure;altitude;pressure_sealevel;temperature;humidity
61337;BME280;47212;41.326;2.104;2023-04-21T00:03:40;100727.59;;;16.14;84.30
61337;BME280;47212;41.326;2.104;2023-04-21T00:08:43;100724.34;;;16.12;84.40
61337;BME280;47212;41.326;2.104;2023-04-21T00:13:45;100717.53;;;16.10;86.88
61337;BME280;47212;41.326;2.104;2023-04-21T00:18:47;100721.38;;;16.09;84.82
61337;BME280;47212;41.326;2.104;2023-04-21T00:23:49;100709.59;;;16.08;84.65
61337;BME280;47212;41.326;2.104;2023-04-21T00:28:51;100717.00;;;16.08;86.91
61337;BME280;47212;41.326;2.104;2023-04-21T00:33:53;100712.63;;;16.07;84.36
61337;BME280;47212;41.326;2.104;2023-04-21T00:38:56;100709.59;;;16.08;84.69
61337;BME280;47212;41.326;2.104;2023-04-21T00:44:00;100702.16;;;16.09;84.88
61337;BME280;47212;41.326;2.104;2023-04-21T00:49:04;100699.41;;;16.09;84.69
61337;BME280;47212;41.326;2.104;2023-04-21T00:54:08;100695.25;;;16.11;85.18
61337;BME280;47212;41.326;2.104;2023-04-21T00:59:11;100691.69;;;16.11;84.61
61337;BME280;47212;41.326;2.104;2023-04-21T01:04:14;100693.31;;;16.12;84.71
61337;BME280;47212;41.326;2.104;2023-04-21T01:09:17;100698.22;;;16.15;84.73
61337;BME280;47212;41.326;2.104;2023-04-21T01:14:19;100691.59;;;16.16;84.86
61337;BME280;47212;41.326;2.104;2023-04-21T01:20:43;100687.16;;;16.20;84.90
61337;BME280;47212;41.326;2.104;2023-04-21T01:25:51;100684.91;;;16.22;84.42
61337;BME280;47212;41.326;2.104;2023-04-21T01:30:53;100675.56;;;16.23;84.20
61337;BME280;47212;41.326;2.104;2023-04-21T01:35:56;100679.94;;;16.24;83.90
61337;BME280;47212;41.326;2.104;2023-04-21T01:40:58;100681.56;;;16.25;84.12
61337;BME280;47212;41.326;2.104;2023-04-21T01:46:05;100676.06;;;16.25;83.98
61337;BME280;47212;41.326;2.104;2023-04-21T01:51:07;100673.84;;;16.27;83.49
61337;BME280;47212;41.326;2.104;2023-04-21T01:56:13;100669.16;;;16.28;83.68
61337;BME280;47212;41.326;2.104;2023-04-21T02:01:15;100677.09;;;16.29;83.46
61337;BME280;47212;41.326;2.104;2023-04-21T02:06:19;100665.81;;;16.31;83.13
61337;BME280;47212;41.326;2.104;2023-04-21T02:11:21;100671.00;;;16.32;82.86
61337;BME280;47212;41.326;2.104;2023-04-21T02:16:31;100668.25;;;16.32;82.83
61337;BME280;47212;41.326;2.104;2023-04-21T02:26:11;100669.56;;;16.35;83.17
61337;BME280;47212;41.326;2.104;2023-04-21T02:31:17;100661.34;;;16.35;82.92
61337;BME280;47212;41.326;2.104;2023-04-21T02:36:19;100661.34;;;16.35;82.79
61337;BME280;47212;41.326;2.104;2023-04-21T02:41:21;100656.97;;;16.34;84.55
61337;BME280;47212;41.326;2.104;2023-04-21T02:46:24;100656.75;;;16.30;84.61
61337;BME280;47212;41.326;2.104;2023-04-21T02:51:26;100656.25;;;16.28;83.11
61337;BME280;47212;41.326;2.104;2023-04-21T02:56:28;100658.47;;;16.26;83.13
61337;BME280;47212;41.326;2.104;2023-04-21T03:01:32;100653.28;;;16.24;83.08
61337;BME280;47212;41.326;2.104;2023-04-21T03:06:34;100662.34;;;16.25;83.33
61337;BME280;47212;41.326;2.104;2023-04-21T03:11:37;100665.09;;;16.25;83.58
61337;BME280;47212;41.326;2.104;2023-04-21T03:16:38;100657.97;;;16.24;83.75
61337;BME280;47212;41.326;2.104;2023-04-21T03:21:40;100655.22;;;16.24;83.49
61337;BME280;47212;41.326;2.104;2023-04-21T03:26:42;100653.59;;;16.23;83.76
61337;BME280;47212;41.326;2.104;2023-04-21T03:31:44;100646.16;;;16.23;83.88
61337;BME280;47212;41.326;2.104;2023-04-21T03:36:47;100650.84;;;16.23;83.73
61337;BME280;47212;41.326;2.104;2023-04-21T03:41:49;100649.22;;;16.22;85.22
61337;BME280;47212;41.326;2.104;2023-04-21T03:46:54;100650.84;;;16.23;83.74
61337;BME280;47212;41.326;2.104;2023-04-21T03:51:57;100643.72;;;16.22;83.53
61337;BME280;47212;41.326;2.104;2023-04-21T03:56:59;100644.31;;;16.19;85.38
61337;BME280;47212;41.326;2.104;2023-04-21T04:08:40;100648.78;;;16.15;83.49
61337;BME280;47212;41.326;2.104;2023-04-21T04:13:42;100641.66;;;16.14;84.93
61337;BME280;47212;41.326;2.104;2023-04-21T04:18:44;100643.38;;;16.10;83.47
61337;BME280;47212;41.326;2.104;2023-04-21T04:23:46;100643.19;;;16.06;85.35
61337;BME280;47212;41.326;2.104;2023-04-21T04:28:48;100641.84;;;16.04;83.83
61337;BME280;47212;41.326;2.104;2023-04-21T04:33:51;100644.06;;;16.02;83.46
61337;BME280;47212;41.326;2.104;2023-04-21T04:38:56;100657.28;;;16.00;83.90
61337;BME280;47212;41.326;2.104;2023-04-21T04:43:59;100661.16;;;15.99;83.86
61337;BME280;47212;41.326;2.104;2023-04-21T04:49:02;100657.06;;;15.96;83.85
61337;BME280;47212;41.326;2.104;2023-04-21T04:54:04;100651.88;;;15.95;83.78
61337;BME280;47212;41.326;2.104;2023-04-21T04:59:07;100664.78;;;15.94;83.30
61337;BME280;47212;41.326;2.104;2023-04-21T05:04:09;100665.09;;;15.92;83.35
61337;BME280;47212;41.326;2.104;2023-04-21T05:09:12;100662.66;;;15.91;83.69
61337;BME280;47212;41.326;2.104;2023-04-21T05:14:14;100664.59;;;15.90;83.13
61337;BME280;47212;41.326;2.104;2023-04-21T05:19:16;100671.19;;;15.89;84.97
61337;BME280;47212;41.326;2.104;2023-04-21T05:24:19;100672.31;;;15.88;83.49
61337;BME280;47212;41.326;2.104;2023-04-21T05:29:24;100675.56;;;15.90;83.47
61337;BME280;47212;41.326;2.104;2023-04-21T05:34:26;100667.03;;;15.92;85.29
61337;BME280;47212;41.326;2.104;2023-04-21T05:39:29;100676.91;;;15.93;83.46
61337;BME280;47212;41.326;2.104;2023-04-21T05:44:31;100680.97;;;15.96;83.52
61337;BME280;47212;41.326;2.104;2023-04-21T05:49:33;100690.53;;;15.98;85.21
61337;BME280;47212;41.326;2.104;2023-04-21T05:54:35;100684.75;;;16.00;83.93
61337;BME280;47212;41.326;2.104;2023-04-21T05:59:37;100686.59;;;16.04;83.48
61337;BME280;47212;41.326;2.104;2023-04-21T06:04:39;100689.25;;;16.09;84.03
61337;BME280;47212;41.326;2.104;2023-04-21T06:09:42;100676.25;;;16.15;83.65
61337;BME280;47212;41.326;2.104;2023-04-21T06:14:44;100685.72;;;16.22;83.98
61337;BME280;47212;41.326;2.104;2023-04-21T06:19:46;100689.19;;;16.28;83.96
61337;BME280;47212;41.326;2.104;2023-04-21T06:24:54;100685.25;;;16.34;83.90
61337;BME280;47212;41.326;2.104;2023-04-21T06:29:56;100688.41;;;16.41;83.79
61337;BME280;47212;41.326;2.104;2023-04-21T06:34:57;100685.31;;;16.48;84.61
61337;BME280;47212;41.326;2.104;2023-04-21T06:39:59;100694.47;;;16.57;82.84
61337;BME280;47212;41.326;2.104;2023-04-21T06:45:01;100702.25;;;16.69;83.48
61337;BME280;47212;41.326;2.104;2023-04-21T06:50:04;100696.97;;;16.86;81.43
61337;BME280;47212;41.326;2.104;2023-04-21T06:55:07;100695.44;;;17.07;80.78
61337;BME280;47212;41.326;2.104;2023-04-21T07:00:10;100701.50;;;17.32;79.32
61337;BME280;47212;41.326;2.104;2023-04-21T07:05:12;100702.81;;;17.48;78.61
61337;BME280;47212;41.326;2.104;2023-04-21T07:10:14;100702.16;;;17.65;77.64
61337;BME280;47212;41.326;2.104;2023-04-21T07:15:20;100700.34;;;17.96;76.32
61337;BME280;47212;41.326;2.104;2023-04-21T07:20:23;100700.91;;;18.29;75.05
61337;BME280;47212;41.326;2.104;2023-04-21T07:25:25;100716.28;;;18.53;73.29
61337;BME280;47212;41.326;2.104;2023-04-21T07:30:27;100708.59;;;18.63;71.98
61337;BME280;47212;41.326;2.104;2023-04-21T07:35:30;100711.25;;;18.77;71.54
61337;BME280;47212;41.326;2.104;2023-04-21T07:40:32;100718.47;;;18.95;70.33
61337;BME280;47212;41.326;2.104;2023-04-21T07:45:35;100726.44;;;19.05;68.99
61337;BME280;47212;41.326;2.104;2023-04-21T07:50:37;100726.00;;;19.12;68.62
61337;BME280;47212;41.326;2.104;2023-04-21T07:55:39;100724.59;;;19.23;67.83
61337;BME280;47212;41.326;2.104;2023-04-21T08:00:41;100724.75;;;19.27;67.62
61337;BME280;47212;41.326;2.104;2023-04-21T08:05:43;100728.69;;;19.43;67.34
61337;BME280;47212;41.326;2.104;2023-04-21T08:10:46;100724.13;;;19.30;67.48
61337;BME280;47212;41.326;2.104;2023-04-21T08:15:48;100735.50;;;19.37;67.84
61337;BME280;47212;41.326;2.104;2023-04-21T08:20:50;100736.00;;;19.48;67.55
61337;BME280;47212;41.326;2.104;2023-04-21T08:25:53;100736.22;;;19.60;67.47
61337;BME280;47212;41.326;2.104;2023-04-21T08:30:55;100741.56;;;19.65;67.31
61337;BME280;47212;41.326;2.104;2023-04-21T08:35:57;100741.41;;;19.61;67.39
61337;BME280;47212;41.326;2.104;2023-04-21T08:41:08;100760.75;;;19.61;67.70
61337;BME280;47212;41.326;2.104;2023-04-21T08:46:11;100760.91;;;19.73;67.15
61337;BME280;47212;41.326;2.104;2023-04-21T08:51:23;100769.38;;;19.86;66.60
61337;BME280;47212;41.326;2.104;2023-04-21T08:56:28;100783.84;;;19.83;67.01
61337;BME280;47212;41.326;2.104;2023-04-21T09:01:30;100787.75;;;19.90;66.83
61337;BME280;47212;41.326;2.104;2023-04-21T09:06:41;100804.53;;;20.11;65.78
61337;BME280;47212;41.326;2.104;2023-04-21T09:11:54;100799.97;;;20.15;65.95
61337;BME280;47212;41.326;2.104;2023-04-21T09:17:02;100801.91;;;20.06;66.21
61337;BME280;47212;41.326;2.104;2023-04-21T09:22:05;100797.69;;;20.00;66.48
61337;BME280;47212;41.326;2.104;2023-04-21T09:27:09;100809.06;;;20.07;66.69
61337;BME280;47212;41.326;2.104;2023-04-21T09:32:11;100815.25;;;20.21;66.66
61337;BME280;47212;41.326;2.104;2023-04-21T09:37:17;100815.09;;;20.18;66.84
61337;BME280;47212;41.326;2.104;2023-04-21T09:42:27;100807.28;;;20.20;66.26
61337;BME280;47212;41.326;2.104;2023-04-21T09:47:36;100805.34;;;20.12;67.10
61337;BME280;47212;41.326;2.104;2023-04-21T09:52:42;100809.88;;;20.08;66.85
61337;BME280;47212;41.326;2.104;2023-04-21T09:57:46;100818.50;;;20.06;67.32
61337;BME280;47212;41.326;2.104;2023-04-21T10:02:53;100826.31;;;20.21;66.73
61337;BME280;47212;41.326;2.104;2023-04-21T10:07:56;100828.09;;;20.34;66.66
61337;BME280;47212;41.326;2.104;2023-04-21T10:12:59;100826.47;;;20.33;66.53
61337;BME280;47212;41.326;2.104;2023-04-21T10:18:17;100827.78;;;20.19;66.97
61337;BME280;47212;41.326;2.104;2023-04-21T10:23:41;100830.84;;;20.17;66.92
61337;BME280;47212;41.326;2.104;2023-04-21T10:28:47;100829.88;;;20.30;66.56
61337;BME280;47212;41.326;2.104;2023-04-21T10:39:10;100831.66;;;20.35;66.54
61337;BME280;47212;41.326;2.104;2023-04-21T10:44:17;100826.78;;;20.32;66.84
61337;BME280;47212;41.326;2.104;2023-04-21T10:49:24;100833.66;;;20.43;66.65
61337;BME280;47212;41.326;2.104;2023-04-21T10:54:31;100841.44;;;20.32;66.76
61337;BME280;47212;41.326;2.104;2023-04-21T10:59:38;100830.84;;;20.17;67.92
61337;BME280;47212;41.326;2.104;2023-04-21T11:04:40;100839.97;;;20.26;67.99
61337;BME280;47212;41.326;2.104;2023-04-21T11:15:04;100829.59;;;20.41;67.32
61337;BME280;47212;41.326;2.104;2023-04-21T11:20:08;100833.78;;;20.12;68.05
61337;BME280;47212;41.326;2.104;2023-04-21T11:25:17;100834.28;;;20.14;68.25
61337;BME280;47212;41.326;2.104;2023-04-21T11:30:20;100835.41;;;20.30;67.93
61337;BME280;47212;41.326;2.104;2023-04-21T11:35:22;100835.28;;;20.44;66.97
61337;BME280;47212;41.326;2.104;2023-04-21T11:40:24;100832.16;;;20.28;67.17
61337;BME280;47212;41.326;2.104;2023-04-21T11:45:27;100842.06;;;20.21;67.63
61337;BME280;47212;41.326;2.104;2023-04-21T11:50:30;100835.25;;;20.18;66.58
61337;BME280;47212;41.326;2.104;2023-04-21T11:55:36;100838.50;;;20.12;66.76
61337;BME280;47212;41.326;2.104;2023-04-21T12:00:38;100832.00;;;20.08;66.37
61337;BME280;47212;41.326;2.104;2023-04-21T12:05:41;100825.50;;;20.12;65.93
61337;BME280;47212;41.326;2.104;2023-04-21T12:10:44;100835.56;;;20.25;66.13
61337;BME280;47212;41.326;2.104;2023-04-21T12:15:47;100845.16;;;20.19;65.57
61337;BME280;47212;41.326;2.104;2023-04-21T12:20:51;100839.31;;;20.21;66.22
61337;BME280;47212;41.326;2.104;2023-04-21T12:25:53;100839.97;;;20.26;66.41
61337;BME280;47212;41.326;2.104;2023-04-21T12:30:55;100843.22;;;20.11;65.48
61337;BME280;47212;41.326;2.104;2023-04-21T12:35:57;100836.53;;;19.95;66.61
61337;BME280;47212;41.326;2.104;2023-04-21T12:41:00;100835.56;;;19.99;66.90
61337;BME280;47212;41.326;2.104;2023-04-21T12:46:02;100826.91;;;19.84;66.44
61337;BME280;47212;41.326;2.104;2023-04-21T12:51:04;100829.34;;;19.94;66.80
61337;BME280;47212;41.326;2.104;2023-04-21T12:56:06;100827.13;;;20.04;67.20
61337;BME280;47212;41.326;2.104;2023-04-21T13:01:40;100831.19;;;20.07;66.80
61337;BME280;47212;41.326;2.104;2023-04-21T13:07:21;100828.09;;;20.17;65.79
61337;BME280;47212;41.326;2.104;2023-04-21T13:13:08;100829.22;;;20.16;65.74
61337;BME280;47212;41.326;2.104;2023-04-21T13:18:50;100825.97;;;20.14;65.89
61337;BME280;47212;41.326;2.104;2023-04-21T13:24:33;100821.59;;;20.04;66.58
61337;BME280;47212;41.326;2.104;2023-04-21T13:29:36;100833.06;;;19.81;66.99
61337;BME280;47212;41.326;2.104;2023-04-21T13:34:38;100814.53;;;19.72;67.65
61337;BME280;47212;41.326;2.104;2023-04-21T13:39:40;100813.69;;;19.63;67.83
61337;BME280;47212;41.326;2.104;2023-04-21T13:44:42;100809.81;;;19.64;68.27
61337;BME280;47212;41.326;2.104;2023-04-21T13:49:44;100822.88;;;19.50;68.07
61337;BME280;47212;41.326;2.104;2023-04-21T13:54:46;100806.28;;;19.33;69.11
61337;BME280;47212;41.326;2.104;2023-04-21T13:59:48;100804.81;;;19.35;70.36
61337;BME280;47212;41.326;2.104;2023-04-21T14:04:51;100802.63;;;19.55;69.05
61337;BME280;47212;41.326;2.104;2023-04-21T14:09:54;100800.22;;;19.70;68.66
61337;BME280;47212;41.326;2.104;2023-04-21T14:14:56;100798.13;;;19.76;68.19
61337;BME280;47212;41.326;2.104;2023-04-21T14:19:58;100799.88;;;19.63;68.07
61337;BME280;47212;41.326;2.104;2023-04-21T14:25:01;100802.81;;;19.58;68.32
61337;BME280;47212;41.326;2.104;2023-04-21T14:30:04;100798.13;;;19.67;68.69
61337;BME280;47212;41.326;2.104;2023-04-21T14:35:07;100807.03;;;19.64;68.27
61337;BME280;47212;41.326;2.104;2023-04-21T14:40:09;100798.13;;;19.67;68.72
61337;BME280;47212;41.326;2.104;2023-04-21T14:45:12;100800.56;;;19.69;69.03
61337;BME280;47212;41.326;2.104;2023-04-21T14:50:14;100801.69;;;19.68;68.91
61337;BME280;47212;41.326;2.104;2023-04-21T14:55:16;100774.47;;;19.44;69.58
61337;BME280;47212;41.326;2.104;2023-04-21T15:00:19;100780.63;;;19.41;70.36
61337;BME280;47212;41.326;2.104;2023-04-21T15:05:21;100787.72;;;19.25;70.96
61337;BME280;47212;41.326;2.104;2023-04-21T15:10:23;100786.09;;;19.24;71.04
61337;BME280;47212;41.326;2.104;2023-04-21T15:15:25;100781.50;;;19.11;71.38
61337;BME280;47212;41.326;2.104;2023-04-21T15:20:28;100780.88;;;19.14;71.39
61337;BME280;47212;41.326;2.104;2023-04-21T15:25:44;100795.16;;;19.16;72.13
61337;BME280;47212;41.326;2.104;2023-04-21T15:30:47;100776.63;;;19.07;72.30
61337;BME280;47212;41.326;2.104;2023-04-21T15:35:49;100788.28;;;19.04;72.41
61337;BME280;47212;41.326;2.104;2023-04-21T15:40:51;100778.66;;;18.93;73.14
61337;BME280;47212;41.326;2.104;2023-04-21T15:46:02;100779.97;;;18.96;73.19
61337;BME280;47212;41.326;2.104;2023-04-21T15:51:06;100779.56;;;19.11;73.11
61337;BME280;47212;41.326;2.104;2023-04-21T15:56:08;100785.94;;;19.20;72.96
61337;BME280;47212;41.326;2.104;2023-04-21T16:01:12;100787.22;;;19.14;73.09
61337;BME280;47212;41.326;2.104;2023-04-21T16:06:14;100777.13;;;19.09;73.46
61337;BME280;47212;41.326;2.104;2023-04-21T16:11:16;100787.78;;;19.02;73.59
61337;BME280;47212;41.326;2.104;2023-04-21T16:16:19;100772.34;;;19.01;73.17
61337;BME280;47212;41.326;2.104;2023-04-21T16:21:21;100771.72;;;19.04;73.05
61337;BME280;47212;41.326;2.104;2023-04-21T16:26:23;100764.31;;;19.14;72.09
61337;BME280;47212;41.326;2.104;2023-04-21T16:31:25;100768.06;;;19.18;72.12
61337;BME280;47212;41.326;2.104;2023-04-21T16:36:27;100758.50;;;19.24;71.79
61337;BME280;47212;41.326;2.104;2023-04-21T16:41:31;100762.94;;;19.33;71.42
61337;BME280;47212;41.326;2.104;2023-04-21T16:46:34;100764.38;;;19.31;71.15
61337;BME280;47212;41.326;2.104;2023-04-21T16:51:36;100765.00;;;19.28;71.33
61337;BME280;47212;41.326;2.104;2023-04-21T16:56:40;100764.84;;;19.24;71.43
61337;BME280;47212;41.326;2.104;2023-04-21T17:01:42;100756.53;;;19.16;71.84
61337;BME280;47212;41.326;2.104;2023-04-21T17:06:45;100761.72;;;19.08;72.57
61337;BME280;47212;41.326;2.104;2023-04-21T17:11:48;100753.38;;;19.00;72.87
61337;BME280;47212;41.326;2.104;2023-04-21T17:16:52;100768.75;;;18.92;72.81
61337;BME280;47212;41.326;2.104;2023-04-21T17:21:55;100763.00;;;18.80;73.39
61337;BME280;47212;41.326;2.104;2023-04-21T17:26:57;100762.50;;;18.78;73.43
61337;BME280;47212;41.326;2.104;2023-04-21T17:31:59;100766.41;;;18.77;73.86
61337;BME280;47212;41.326;2.104;2023-04-21T17:37:02;100766.66;;;18.67;74.17
61337;BME280;47212;41.326;2.104;2023-04-21T17:42:07;100767.66;;;18.49;74.55
61337;BME280;47212;41.326;2.104;2023-04-21T17:47:09;100773.94;;;18.40;74.98
61337;BME280;47212;41.326;2.104;2023-04-21T17:52:11;100775.81;;;18.31;75.60
61337;BME280;47212;41.326;2.104;2023-04-21T17:57:16;100768.31;;;18.23;76.02
61337;BME280;47212;41.326;2.104;2023-04-21T18:02:18;100771.16;;;18.18;76.64
61337;BME280;47212;41.326;2.104;2023-04-21T18:07:21;100777.41;;;18.10;77.09
61337;BME280;47212;41.326;2.104;2023-04-21T18:12:23;100789.38;;;18.05;79.12
61337;BME280;47212;41.326;2.104;2023-04-21T18:17:25;100790.81;;;18.03;79.23
61337;BME280;47212;41.326;2.104;2023-04-21T18:22:27;100793.47;;;17.94;77.30
61337;BME280;47212;41.326;2.104;2023-04-21T18:27:29;100799.59;;;17.91;80.25
61337;BME280;47212;41.326;2.104;2023-04-21T18:32:31;100798.78;;;17.91;80.80
61337;BME280;47212;41.326;2.104;2023-04-21T18:37:34;100796.16;;;17.86;78.93
61337;BME280;47212;41.326;2.104;2023-04-21T18:42:36;100793.72;;;17.84;79.41
61337;BME280;47212;41.326;2.104;2023-04-21T18:47:40;100800.03;;;17.85;79.67
61337;BME280;47212;41.326;2.104;2023-04-21T18:52:42;100802.91;;;17.79;79.83
61337;BME280;47212;41.326;2.104;2023-04-21T18:57:44;100810.66;;;17.77;80.16
61337;BME280;47212;41.326;2.104;2023-04-21T19:02:46;100816.78;;;17.74;82.71
61337;BME280;47212;41.326;2.104;2023-04-21T19:07:52;100820.66;;;17.73;80.36
61337;BME280;47212;41.326;2.104;2023-04-21T19:12:54;100816.88;;;17.69;80.38
61337;BME280;47212;41.326;2.104;2023-04-21T19:17:56;100809.25;;;17.66;80.41
61337;BME280;47212;41.326;2.104;2023-04-21T19:22:58;100821.88;;;17.67;80.41
61337;BME280;47212;41.326;2.104;2023-04-21T19:28:00;100831.25;;;17.66;80.40
61337;BME280;47212;41.326;2.104;2023-04-21T19:33:02;100841.44;;;17.66;80.28
61337;BME280;47212;41.326;2.104;2023-04-21T19:38:06;100846.13;;;17.65;80.20
61337;BME280;47212;41.326;2.104;2023-04-21T19:43:08;100859.69;;;17.62;79.27
61337;BME280;47212;41.326;2.104;2023-04-21T19:48:10;100858.06;;;17.61;80.47
61337;BME280;47212;41.326;2.104;2023-04-21T19:53:12;100881.50;;;17.58;78.67
61337;BME280;47212;41.326;2.104;2023-04-21T19:58:15;100876.59;;;17.55;78.68
61337;BME280;47212;41.326;2.104;2023-04-21T20:03:37;100876.72;;;17.50;79.94
61337;BME280;47212;41.326;2.104;2023-04-21T20:08:39;100881.09;;;17.51;79.42
61337;BME280;47212;41.326;2.104;2023-04-21T20:13:42;100883.84;;;17.51;78.08
61337;BME280;47212;41.326;2.104;2023-04-21T20:18:44;100892.19;;;17.46;78.47
61337;BME280;47212;41.326;2.104;2023-04-21T20:23:46;100894.75;;;17.42;78.82
61337;BME280;47212;41.326;2.104;2023-04-21T20:28:48;100891.28;;;17.37;79.27
61337;BME280;47212;41.326;2.104;2023-04-21T20:33:50;100903.47;;;17.31;80.45
61337;BME280;47212;41.326;2.104;2023-04-21T20:38:52;100920.56;;;17.28;79.56
61337;BME280;47212;41.326;2.104;2023-04-21T20:43:54;100914.97;;;17.19;81.64
61337;BME280;47212;41.326;2.104;2023-04-21T20:48:57;100916.88;;;17.18;80.58
61337;BME280;47212;41.326;2.104;2023-04-21T20:53:59;100920.16;;;17.20;81.18
61337;BME280;47212;41.326;2.104;2023-04-21T20:59:01;100933.09;;;17.20;81.43
61337;BME280;47212;41.326;2.104;2023-04-21T21:04:03;100938.91;;;17.18;81.10
61337;BME280;47212;41.326;2.104;2023-04-21T21:09:06;100931.25;;;17.15;81.31
61337;BME280;47212;41.326;2.104;2023-04-21T21:14:08;100936.97;;;17.19;81.98
61337;BME280;47212;41.326;2.104;2023-04-21T21:19:10;100935.53;;;17.22;81.95
61337;BME280;47212;41.326;2.104;2023-04-21T21:24:13;100929.53;;;17.19;82.18
61337;BME280;47212;41.326;2.104;2023-04-21T21:29:15;100936.16;;;17.18;81.59
61337;BME280;47212;41.326;2.104;2023-04-21T21:34:17;100950.19;;;17.17;82.04
61337;BME280;47212;41.326;2.104;2023-04-21T21:39:19;100953.84;;;17.12;82.82
61337;BME280;47212;41.326;2.104;2023-04-21T21:44:22;100959.97;;;17.09;83.26
61337;BME280;47212;41.326;2.104;2023-04-21T21:49:24;100959.44;;;17.07;83.74
61337;BME280;47212;41.326;2.104;2023-04-21T21:54:26;100969.13;;;17.05;84.38
61337;BME280;47212;41.326;2.104;2023-04-21T21:59:28;100977.66;;;17.03;84.78
61337;BME280;47212;41.326;2.104;2023-04-21T22:04:30;100971.13;;;16.99;85.03
61337;BME280;47212;41.326;2.104;2023-04-21T22:09:32;100971.94;;;17.00;85.08
61337;BME280;47212;41.326;2.104;2023-04-21T22:14:35;100984.34;;;16.97;85.51
61337;BME280;47212;41.326;2.104;2023-04-21T22:19:37;100978.34;;;16.95;85.65
61337;BME280;47212;41.326;2.104;2023-04-21T22:24:42;100970.41;;;16.94;86.05
61337;BME280;47212;41.326;2.104;2023-04-21T22:29:44;100984.13;;;16.94;87.76
61337;BME280;47212;41.326;2.104;2023-04-21T22:34:46;100984.44;;;16.92;86.01
61337;BME280;47212;41.326;2.104;2023-04-21T22:39:48;100986.38;;;16.92;85.73
61337;BME280;47212;41.326;2.104;2023-04-21T22:44:50;100984.44;;;16.92;86.10
61337;BME280;47212;41.326;2.104;2023-04-21T22:49:52;100982.81;;;16.91;85.94
61337;BME280;47212;41.326;2.104;2023-04-21T22:54:56;100983.09;;;16.90;86.42
61337;BME280;47212;41.326;2.104;2023-04-21T22:59:59;100994.91;;;16.90;86.35
61337;BME280;47212;41.326;2.104;2023-04-21T23:05:01;100991.66;;;16.88;86.02
61337;BME280;47212;41.326;2.104;2023-04-21T23:10:03;100999.91;;;16.88;86.35
61337;BME280;47212;41.326;2.104;2023-04-21T23:15:06;100987.88;;;16.84;85.43
61337;BME280;47212;41.326;2.104;2023-04-21T23:20:09;100992.63;;;16.78;84.46
61337;BME280;47212;41.326;2.104;2023-04-21T23:25:11;100990.78;;;16.74;83.46
61337;BME280;47212;41.326;2.104;2023-04-21T23:30:13;100997.97;;;16.70;82.33
61337;BME280;47212;41.326;2.104;2023-04-21T23:35:16;100990.31;;;16.67;80.53
61337;BME280;47212;41.326;2.104;2023-04-21T23:40:18;100985.38;;;16.64;79.46
61337;BME280;47212;41.326;2.104;2023-04-21T23:45:21;100985.69;;;16.62;78.82
61337;BME280;47212;41.326;2.104;2023-04-21T23:50:23;100989.84;;;16.60;78.03
61337;BME280;47212;41.326;2.104;2023-04-21T23:55:25;100986.88;;;16.56;77.19
